createdAt,value
2017-09-09T00:02:11.960Z,13.50
2017-09-09T00:04:39.451Z,13.50
2017-09-09T00:07:09.584Z,13.60
2017-09-09T00:09:37.124Z,13.60
2017-09-09T00:12:09.254Z,13.60
2017-09-09T00:14:37.397Z,13.60
2017-09-09T00:17:05.746Z,13.50
2017-09-09T00:19:34.060Z,13.60
2017-09-09T00:22:02.344Z,13.60
2017-09-09T00:24:29.867Z,13.60
2017-09-09T00:26:57.413Z,13.70
2017-09-09T00:29:24.901Z,13.70
2017-09-09T00:31:52.411Z,13.70
2017-09-09T00:34:19.945Z,13.70
2017-09-09T00:36:47.444Z,13.70
2017-09-09T00:39:14.968Z,13.70
2017-09-09T00:41:42.467Z,13.60
2017-09-09T00:44:10.760Z,13.60
2017-09-09T00:46:39.013Z,13.60
2017-09-09T00:49:06.547Z,13.60
2017-09-09T00:51:34.059Z,13.50
2017-09-09T00:54:01.610Z,13.50
2017-09-09T00:56:29.868Z,13.50
2017-09-09T00:58:58.125Z,13.50
2017-09-09T01:01:25.660Z,13.50
2017-09-09T01:03:53.163Z,13.50
2017-09-09T01:06:21.429Z,13.40
2017-09-09T01:08:49.720Z,13.40
2017-09-09T01:11:18.032Z,13.40
2017-09-09T01:13:45.536Z,13.40
2017-09-09T01:16:13.817Z,13.40
2017-09-09T01:18:42.108Z,13.40
2017-09-09T01:21:09.605Z,13.40
2017-09-09T01:23:37.143Z,13.40
2017-09-09T01:26:04.672Z,13.40
2017-09-09T01:28:32.934Z,13.40
2017-09-09T01:31:01.197Z,13.40
2017-09-09T01:33:28.744Z,13.40
2017-09-09T01:35:56.245Z,13.40
2017-09-09T01:38:23.744Z,13.40
2017-09-09T01:40:51.272Z,13.40
2017-09-09T01:43:18.763Z,13.40
2017-09-09T01:45:46.298Z,13.50
2017-09-09T01:48:13.820Z,13.40
2017-09-09T01:50:42.118Z,13.30
2017-09-09T01:53:09.616Z,13.30
2017-09-09T01:55:37.116Z,13.30
2017-09-09T01:58:04.680Z,13.30
2017-09-09T02:00:32.185Z,13.20
2017-09-09T02:02:59.684Z,13.20
2017-09-09T02:05:27.205Z,13.20
2017-09-09T02:07:54.693Z,13.20
2017-09-09T02:10:22.976Z,13.30
2017-09-09T02:12:50.468Z,13.30
2017-09-09T02:15:17.988Z,13.30
2017-09-09T02:17:46.247Z,13.30
2017-09-09T02:20:13.775Z,13.30
2017-09-09T02:22:42.037Z,13.30
2017-09-09T02:25:09.569Z,13.30
2017-09-09T02:27:37.074Z,13.30
2017-09-09T02:30:04.562Z,13.30
2017-09-09T02:32:32.103Z,13.30
2017-09-09T02:34:59.636Z,13.30
2017-09-09T02:37:27.170Z,13.30
2017-09-09T02:39:54.693Z,13.20
2017-09-09T02:42:22.987Z,13.20
2017-09-09T02:44:50.483Z,13.20
2017-09-09T02:47:17.980Z,13.20
2017-09-09T02:49:45.512Z,13.20
2017-09-09T02:52:13.015Z,13.10
2017-09-09T02:54:40.506Z,13.10
2017-09-09T02:57:08.813Z,13.10
2017-09-09T02:59:37.085Z,13.00
2017-09-09T03:02:05.340Z,13.00
2017-09-09T03:04:32.866Z,13.00
2017-09-09T03:07:00.361Z,12.90
2017-09-09T03:09:27.839Z,12.90
2017-09-09T03:11:56.137Z,12.90
2017-09-09T03:14:23.627Z,12.90
2017-09-09T03:16:51.139Z,12.80
2017-09-09T03:19:18.656Z,12.80
2017-09-09T03:21:46.199Z,12.80
2017-09-09T03:24:13.727Z,12.70
2017-09-09T03:26:41.215Z,12.70
2017-09-09T03:29:08.702Z,12.60
2017-09-09T03:31:36.982Z,12.60
2017-09-09T03:34:05.240Z,12.60
2017-09-09T03:36:32.782Z,12.50
2017-09-09T03:39:00.274Z,12.50
2017-09-09T03:41:28.529Z,12.50
2017-09-09T03:43:56.064Z,12.40
2017-09-09T03:46:23.552Z,12.40
2017-09-09T03:48:51.042Z,12.40
2017-09-09T03:51:18.566Z,12.40
2017-09-09T03:53:46.064Z,12.40
2017-09-09T03:56:13.595Z,12.30
2017-09-09T03:58:41.839Z,12.30
2017-09-09T04:01:09.323Z,12.30
2017-09-09T04:03:37.620Z,12.30
2017-09-09T04:06:05.197Z,12.30
2017-09-09T04:08:32.729Z,12.30
2017-09-09T04:11:00.223Z,12.30
2017-09-09T04:13:27.744Z,12.40
2017-09-09T04:15:55.263Z,12.40
2017-09-09T04:18:22.750Z,12.40
2017-09-09T04:20:50.273Z,12.50
2017-09-09T04:23:17.765Z,12.60
2017-09-09T04:25:45.304Z,12.70
2017-09-09T04:28:13.562Z,12.80
2017-09-09T04:30:41.043Z,12.80
2017-09-09T04:33:08.631Z,12.90
2017-09-09T04:35:36.124Z,12.90
2017-09-09T04:38:03.617Z,13.00
2017-09-09T04:40:31.916Z,13.10
2017-09-09T04:42:59.426Z,13.10
2017-09-09T04:45:26.917Z,13.10
2017-09-09T04:47:54.448Z,13.20
2017-09-09T04:50:22.706Z,13.30
2017-09-09T04:52:50.195Z,13.30
2017-09-09T04:55:18.499Z,13.30
2017-09-09T04:57:45.989Z,13.30
2017-09-09T05:00:13.482Z,13.30
2017-09-09T05:02:41.000Z,13.40
2017-09-09T05:05:08.480Z,13.40
2017-09-09T05:07:36.767Z,13.40
2017-09-09T05:10:04.248Z,13.40
2017-09-09T05:12:31.764Z,13.50
2017-09-09T05:17:33.281Z,13.60
2017-09-09T05:20:00.771Z,13.60
2017-09-09T05:22:28.259Z,13.60
2017-09-09T05:24:56.534Z,13.70
2017-09-09T05:27:24.811Z,13.70
2017-09-09T05:29:52.336Z,13.70
2017-09-09T05:32:19.821Z,13.70
2017-09-09T05:34:47.311Z,13.80
2017-09-09T05:37:14.837Z,13.80
2017-09-09T05:39:43.103Z,13.90
2017-09-09T05:42:11.364Z,13.90
2017-09-09T05:44:39.641Z,13.90
2017-09-09T05:47:07.900Z,13.90
2017-09-09T05:49:35.444Z,13.90
2017-09-09T05:52:03.700Z,14.00
2017-09-09T05:54:31.186Z,13.90
2017-09-09T05:56:58.700Z,14.00
2017-09-09T05:59:26.187Z,14.00
2017-09-09T06:01:53.694Z,14.00
2017-09-09T06:04:21.214Z,14.00
2017-09-09T06:06:48.778Z,14.00
2017-09-09T06:09:16.277Z,14.00
2017-09-09T06:11:43.759Z,14.00
2017-09-09T06:14:11.303Z,14.00
2017-09-09T06:16:38.789Z,14.00
2017-09-09T06:19:06.291Z,14.10
2017-09-09T06:21:34.589Z,14.10
2017-09-09T06:24:02.078Z,14.10
2017-09-09T06:26:29.591Z,14.10
2017-09-09T06:28:57.113Z,14.10
2017-09-09T06:31:24.606Z,14.20
2017-09-09T06:33:52.135Z,14.20
2017-09-09T06:36:20.423Z,14.20
2017-09-09T06:38:47.906Z,14.20
2017-09-09T06:41:15.405Z,14.20
2017-09-09T06:43:42.928Z,14.20
2017-09-09T06:46:10.455Z,14.20
2017-09-09T06:48:38.702Z,14.20
2017-09-09T06:51:06.219Z,14.20
2017-09-09T06:53:33.703Z,14.20
2017-09-09T06:56:01.224Z,14.20
2017-09-09T06:58:28.760Z,14.20
2017-09-09T07:00:56.239Z,14.20
2017-09-09T07:03:23.752Z,14.20
2017-09-09T07:05:51.262Z,14.10
2017-09-09T07:08:18.750Z,14.10
2017-09-09T07:10:46.278Z,14.10
2017-09-09T07:13:13.766Z,14.10
2017-09-09T07:15:41.304Z,14.10
2017-09-09T07:18:08.819Z,14.10
2017-09-09T07:20:36.322Z,14.00
2017-09-09T07:23:03.836Z,14.00
2017-09-09T07:25:31.351Z,14.00
2017-09-09T07:27:58.849Z,14.00
2017-09-09T07:30:26.385Z,14.00
2017-09-09T07:32:54.648Z,14.00
2017-09-09T07:35:22.907Z,14.00
2017-09-09T07:37:50.438Z,14.00
2017-09-09T07:40:17.936Z,14.00
2017-09-09T07:42:46.191Z,14.00
2017-09-09T07:45:13.710Z,14.00
2017-09-09T07:47:41.230Z,14.10
2017-09-09T07:50:09.491Z,14.10
2017-09-09T07:52:37.008Z,14.00
2017-09-09T07:55:04.528Z,14.10
2017-09-09T07:57:32.821Z,14.10
2017-09-09T08:00:00.313Z,14.10
2017-09-09T08:02:27.791Z,14.10
2017-09-09T08:04:55.318Z,14.10
2017-09-09T08:07:22.845Z,14.10
2017-09-09T08:09:50.339Z,14.10
2017-09-09T08:12:17.828Z,14.10
2017-09-09T08:14:46.117Z,14.10
2017-09-09T08:17:13.612Z,14.10
2017-09-09T08:19:41.099Z,14.10
2017-09-09T08:22:08.621Z,14.10
2017-09-09T08:24:36.117Z,14.10
2017-09-09T08:27:03.661Z,14.00
2017-09-09T08:29:31.148Z,14.00
2017-09-09T08:31:59.411Z,13.90
2017-09-09T08:34:26.964Z,13.90
2017-09-09T08:36:54.480Z,13.90
2017-09-09T08:39:21.976Z,13.90
2017-09-09T08:41:49.500Z,13.90
2017-09-09T08:44:16.985Z,13.80
2017-09-09T08:46:44.508Z,13.80
2017-09-09T08:49:12.066Z,13.80
2017-09-09T08:51:39.563Z,13.70
2017-09-09T08:54:07.057Z,13.70
2017-09-09T08:56:34.589Z,13.60
2017-09-09T08:59:02.880Z,13.60
2017-09-09T09:01:30.410Z,13.60
2017-09-09T09:03:57.912Z,13.50
2017-09-09T09:06:25.442Z,13.50
2017-09-09T09:08:52.962Z,13.40
2017-09-09T09:11:20.693Z,13.40
2017-09-09T09:13:48.229Z,13.40
2017-09-09T09:16:15.734Z,13.40
2017-09-09T09:18:43.265Z,13.40
2017-09-09T09:21:10.752Z,13.50
2017-09-09T09:23:38.243Z,13.50
2017-09-09T09:26:06.536Z,13.50
2017-09-09T09:28:34.077Z,13.50
2017-09-09T09:31:02.335Z,13.50
2017-09-09T09:33:29.823Z,13.40
2017-09-09T09:35:57.353Z,13.40
2017-09-09T09:38:24.874Z,13.40
2017-09-09T09:40:52.368Z,13.40
2017-09-09T09:43:20.655Z,13.40
2017-09-09T09:45:48.214Z,13.40
2017-09-09T09:48:16.540Z,13.40
2017-09-09T09:50:44.028Z,13.40
2017-09-09T09:53:11.572Z,13.40
2017-09-09T09:55:39.096Z,13.40
2017-09-09T09:58:06.612Z,13.40
2017-09-09T10:00:38.765Z,13.50
2017-09-09T10:03:06.256Z,13.50
2017-09-09T10:05:33.791Z,13.50
2017-09-09T10:08:02.615Z,13.50
2017-09-09T10:10:30.140Z,13.50
2017-09-09T10:12:58.443Z,13.50
2017-09-09T10:15:25.988Z,13.50
2017-09-09T10:17:53.474Z,13.50
2017-09-09T10:20:20.961Z,13.50
2017-09-09T10:22:48.536Z,13.50
2017-09-09T10:28:26.257Z,13.60
2017-09-09T10:30:54.567Z,13.60
2017-09-09T10:33:23.516Z,13.60
2017-09-09T10:35:54.680Z,13.70
2017-09-09T10:38:24.637Z,13.80
2017-09-09T10:40:53.949Z,13.80
2017-09-09T10:43:22.020Z,13.90
2017-09-09T10:45:51.417Z,13.90
2017-09-09T10:48:20.585Z,13.90
2017-09-09T10:50:51.243Z,13.90
2017-09-09T10:53:19.130Z,14.00
2017-09-09T10:55:47.473Z,13.90
2017-09-09T10:58:16.062Z,13.90
2017-09-09T11:00:44.263Z,14.00
2017-09-09T11:03:12.286Z,14.00
2017-09-09T11:05:39.882Z,14.10
2017-09-09T11:08:07.421Z,14.10
2017-09-09T11:10:35.680Z,14.10
2017-09-09T11:13:03.350Z,14.10
2017-09-09T11:15:31.211Z,14.10
2017-09-09T11:17:59.729Z,14.20
2017-09-09T11:20:29.919Z,14.20
2017-09-09T11:22:57.640Z,14.10
2017-09-09T11:25:25.735Z,14.20
2017-09-09T11:27:53.349Z,14.20
2017-09-09T11:30:21.041Z,14.30
2017-09-09T11:32:48.685Z,14.30
2017-09-09T11:35:16.339Z,14.30
2017-09-09T11:37:44.574Z,14.40
2017-09-09T11:40:12.622Z,14.40
2017-09-09T11:42:40.276Z,14.30
2017-09-09T11:45:07.972Z,14.30
2017-09-09T11:47:35.691Z,14.30
2017-09-09T11:50:03.345Z,14.30
2017-09-09T11:52:30.908Z,14.30
2017-09-09T11:54:59.434Z,14.30
2017-09-09T11:57:28.086Z,14.30
2017-09-09T11:59:55.712Z,14.30
2017-09-09T12:02:23.878Z,14.30
2017-09-09T12:04:52.090Z,14.30
2017-09-09T12:07:19.866Z,14.30
2017-09-09T12:09:47.730Z,14.40
2017-09-09T12:12:15.549Z,14.40
2017-09-09T12:14:43.178Z,14.40
2017-09-09T12:17:17.775Z,14.40
2017-09-09T12:19:46.753Z,14.30
2017-09-09T12:22:15.497Z,14.20
2017-09-09T12:24:45.505Z,14.20
2017-09-09T12:27:14.475Z,14.10
2017-09-09T12:29:42.950Z,14.10
2017-09-09T12:32:12.685Z,14.10
2017-09-09T12:34:41.019Z,14.10
2017-09-09T12:37:09.278Z,14.10
2017-09-09T12:39:39.997Z,14.10
2017-09-09T12:42:09.516Z,14.00
2017-09-09T12:44:38.472Z,14.00
2017-09-09T12:47:07.760Z,14.00
2017-09-09T12:49:35.786Z,14.00
2017-09-09T12:52:03.738Z,14.10
2017-09-09T12:54:35.267Z,14.10
2017-09-09T12:57:05.618Z,14.10
2017-09-09T12:59:33.851Z,14.10
2017-09-09T13:02:02.602Z,14.20
2017-09-09T13:04:31.133Z,14.20
2017-09-09T13:07:00.261Z,14.20
2017-09-09T13:09:30.276Z,14.20
2017-09-09T13:11:59.023Z,14.30
2017-09-09T13:14:29.882Z,14.30
2017-09-09T13:16:57.929Z,14.20
2017-09-09T13:19:25.857Z,14.20
2017-09-09T13:21:53.862Z,14.20
2017-09-09T13:24:23.030Z,14.20
2017-09-09T13:26:51.906Z,14.20
2017-09-09T13:29:20.091Z,14.20
2017-09-09T13:31:48.333Z,14.20
2017-09-09T13:34:17.147Z,14.20
2017-09-09T13:36:45.824Z,14.20
2017-09-09T13:39:15.430Z,14.20
2017-09-09T13:41:45.333Z,14.20
2017-09-09T13:44:13.446Z,14.20
2017-09-09T13:46:44.207Z,14.30
2017-09-09T13:49:13.191Z,14.20
2017-09-09T13:51:41.572Z,14.20
2017-09-09T13:54:09.186Z,14.20
2017-09-09T13:56:37.944Z,14.20
2017-09-09T13:59:06.857Z,14.20
2017-09-09T14:01:34.414Z,14.20
2017-09-09T14:04:02.518Z,14.20
2017-09-09T14:06:31.204Z,14.20
2017-09-09T14:08:59.650Z,14.20
2017-09-09T14:11:27.587Z,14.20
2017-09-09T14:13:55.185Z,14.20
2017-09-09T14:16:22.733Z,14.10
2017-09-09T14:18:50.636Z,14.10
2017-09-09T14:21:18.426Z,14.10
2017-09-09T14:23:46.106Z,14.10
2017-09-09T14:26:13.935Z,14.10
2017-09-09T14:28:41.694Z,14.10
2017-09-09T14:31:10.182Z,14.10
2017-09-09T14:33:39.565Z,14.10
2017-09-09T14:36:07.926Z,14.10
2017-09-09T14:38:35.491Z,14.10
2017-09-09T14:41:03.287Z,14.10
2017-09-09T14:43:31.181Z,14.10
2017-09-09T14:45:59.212Z,14.00
2017-09-09T14:48:26.896Z,14.00
2017-09-09T14:50:54.453Z,14.00
2017-09-09T14:53:22.116Z,14.00
2017-09-09T14:55:49.764Z,14.00
2017-09-09T14:58:17.286Z,14.00
2017-09-09T15:00:44.940Z,14.00
2017-09-09T15:03:12.473Z,14.00
2017-09-09T15:05:40.100Z,14.00
2017-09-09T15:08:07.891Z,14.00
2017-09-09T15:10:36.286Z,14.00
2017-09-09T15:13:03.891Z,14.00
2017-09-09T15:15:32.266Z,13.90
2017-09-09T15:17:59.799Z,13.90
2017-09-09T15:20:27.453Z,13.90
2017-09-09T15:22:55.085Z,13.90
2017-09-09T15:25:22.628Z,13.90
2017-09-09T15:27:50.396Z,13.80
2017-09-09T15:30:18.019Z,13.80
2017-09-09T15:32:45.880Z,13.80
2017-09-09T15:35:13.693Z,13.80
2017-09-09T15:37:42.239Z,13.70
2017-09-09T15:40:09.932Z,13.70
2017-09-09T15:42:37.479Z,13.70
2017-09-09T15:45:05.041Z,13.70
2017-09-09T15:47:33.367Z,13.70
2017-09-09T15:50:01.097Z,13.70
2017-09-09T15:52:28.680Z,13.70
2017-09-09T15:54:56.212Z,13.60
2017-09-09T15:57:24.069Z,13.60
2017-09-09T15:59:51.598Z,13.60
2017-09-09T16:02:19.143Z,13.60
2017-09-09T16:04:46.728Z,13.60
2017-09-09T16:07:14.502Z,13.60
2017-09-09T16:09:42.055Z,13.60
2017-09-09T16:12:09.551Z,13.50
2017-09-09T16:14:37.039Z,13.50
2017-09-09T16:17:04.560Z,13.50
2017-09-09T16:19:32.047Z,13.40
2017-09-09T16:22:00.302Z,13.40
2017-09-09T16:24:27.838Z,13.40
2017-09-09T16:26:55.329Z,13.40
2017-09-09T16:29:22.808Z,13.40
2017-09-09T16:31:50.306Z,13.40
2017-09-09T16:34:18.048Z,13.40
2017-09-09T16:36:45.599Z,13.40
2017-09-09T16:39:13.573Z,13.40
2017-09-09T16:41:41.774Z,13.40
2017-09-09T16:44:09.920Z,13.40
2017-09-09T16:46:38.298Z,13.40
2017-09-09T16:49:05.783Z,13.40
2017-09-09T16:51:33.480Z,13.30
2017-09-09T16:54:01.416Z,13.30
2017-09-09T16:56:29.197Z,13.30
2017-09-09T16:58:57.227Z,13.30
2017-09-09T17:01:26.035Z,13.30
2017-09-09T17:03:53.847Z,13.30
2017-09-09T17:06:21.897Z,13.30
2017-09-09T17:08:50.002Z,13.30
2017-09-09T17:11:18.660Z,13.30
2017-09-09T17:13:46.186Z,13.30
2017-09-09T17:16:13.739Z,13.30
2017-09-09T17:18:41.217Z,13.30
2017-09-09T17:21:09.500Z,13.30
2017-09-09T17:23:37.779Z,13.20
2017-09-09T17:26:05.262Z,13.30
2017-09-09T17:28:32.797Z,13.20
2017-09-09T17:31:00.288Z,13.20
2017-09-09T17:33:27.775Z,13.20
2017-09-09T17:35:55.308Z,13.20
2017-09-09T17:38:22.796Z,13.20
2017-09-09T17:40:51.096Z,13.30
2017-09-09T17:43:18.588Z,13.20
2017-09-09T17:45:46.120Z,13.20
2017-09-09T17:48:13.608Z,13.30
2017-09-09T17:50:41.100Z,13.20
2017-09-09T17:53:08.633Z,13.30
2017-09-09T17:55:36.116Z,13.30
2017-09-09T17:58:04.396Z,13.20
2017-09-09T18:00:32.654Z,13.20
2017-09-09T18:03:00.938Z,13.20
2017-09-09T18:05:29.201Z,13.20
2017-09-09T18:07:56.733Z,13.20
2017-09-09T18:10:25.026Z,13.10
2017-09-09T18:12:52.514Z,13.10
2017-09-09T18:15:20.777Z,13.10
2017-09-09T18:17:49.060Z,13.00
2017-09-09T18:20:17.319Z,13.00
2017-09-09T18:22:45.609Z,13.00
2017-09-09T18:25:13.901Z,13.00
2017-09-09T18:27:41.437Z,13.00
2017-09-09T18:30:08.935Z,12.90
2017-09-09T18:32:36.459Z,12.90
2017-09-09T18:35:04.720Z,12.90
2017-09-09T18:37:32.252Z,12.90
2017-09-09T18:39:59.781Z,12.90
2017-09-09T18:42:27.269Z,12.90
2017-09-09T18:44:54.778Z,12.90
2017-09-09T18:47:22.269Z,12.90
2017-09-09T18:49:49.808Z,12.90
2017-09-09T18:52:17.296Z,12.90
2017-09-09T18:54:44.797Z,12.80
2017-09-09T18:57:23.339Z,12.80
2017-09-09T18:59:51.751Z,12.80
2017-09-09T19:02:19.287Z,12.80
2017-09-09T19:04:47.654Z,12.80
2017-09-09T19:07:15.653Z,12.70
2017-09-09T19:09:43.138Z,12.70
2017-09-09T19:12:10.767Z,12.70
2017-09-09T19:14:38.288Z,12.70
2017-09-09T19:17:06.178Z,12.60
2017-09-09T19:19:34.517Z,12.60
2017-09-09T19:22:02.345Z,12.60
2017-09-09T19:24:32.363Z,12.60
2017-09-09T19:26:59.919Z,12.60
2017-09-09T19:29:27.411Z,12.60
2017-09-09T19:31:54.908Z,12.50
2017-09-09T19:34:22.419Z,12.50
2017-09-09T19:36:49.894Z,12.50
2017-09-09T19:39:17.411Z,12.50
2017-09-09T19:41:45.664Z,12.40
2017-09-09T19:44:13.170Z,12.50
2017-09-09T19:46:40.670Z,12.40
2017-09-09T19:49:08.165Z,12.50
2017-09-09T19:51:35.695Z,12.50
2017-09-09T19:54:03.174Z,12.40
2017-09-09T19:56:31.450Z,12.40
2017-09-09T19:58:59.746Z,12.40
2017-09-09T20:01:27.238Z,12.40
2017-09-09T20:03:54.764Z,12.40
2017-09-09T20:06:22.284Z,12.40
2017-09-09T20:08:50.569Z,12.40
2017-09-09T20:11:18.851Z,12.40
2017-09-09T20:13:46.334Z,12.40
2017-09-09T20:16:13.852Z,12.40
2017-09-09T20:18:42.102Z,12.40
2017-09-09T20:21:09.600Z,12.40
2017-09-09T20:23:37.123Z,12.40
2017-09-09T20:26:04.637Z,12.40
2017-09-09T20:28:32.154Z,12.30
2017-09-09T20:31:00.407Z,12.30
2017-09-09T20:33:27.932Z,12.30
2017-09-09T20:35:55.423Z,12.30
2017-09-09T20:38:22.966Z,12.30
2017-09-09T20:40:50.468Z,12.30
2017-09-09T20:43:17.969Z,12.30
2017-09-09T20:45:45.498Z,12.30
2017-09-09T20:48:12.986Z,12.20
2017-09-09T20:50:40.543Z,12.20
2017-09-09T20:53:08.031Z,12.20
2017-09-09T20:55:35.516Z,12.20
2017-09-09T20:58:03.797Z,12.20
2017-09-09T21:00:31.330Z,12.20
2017-09-09T21:02:59.590Z,12.20
2017-09-09T21:05:27.089Z,12.10
2017-09-09T21:07:54.613Z,12.20
2017-09-09T21:10:22.096Z,12.10
2017-09-09T21:12:49.619Z,12.10
2017-09-09T21:15:17.108Z,12.10
2017-09-09T21:17:45.362Z,12.10
2017-09-09T21:20:13.655Z,12.10
2017-09-09T21:22:41.144Z,12.10
2017-09-09T21:25:08.626Z,12.10
2017-09-09T21:27:36.161Z,12.10
2017-09-09T21:30:03.653Z,12.10
2017-09-09T21:32:31.179Z,12.10
2017-09-09T21:34:58.725Z,12.10
2017-09-09T21:37:26.225Z,12.10
2017-09-09T21:39:54.303Z,12.00
2017-09-09T21:42:22.269Z,12.10
2017-09-09T21:44:50.289Z,12.10
2017-09-09T21:47:18.373Z,12.10
2017-09-09T21:49:47.053Z,12.10
2017-09-09T21:52:14.879Z,12.00
2017-09-09T21:54:43.040Z,12.10
2017-09-09T21:57:11.952Z,12.10
2017-09-09T21:59:39.865Z,12.10
2017-09-09T22:02:08.209Z,12.00
2017-09-09T22:04:35.704Z,12.10
2017-09-09T22:07:03.191Z,12.00
2017-09-09T22:09:31.471Z,12.00
2017-09-09T22:11:59.734Z,12.00
2017-09-09T22:14:28.037Z,12.10
2017-09-09T22:16:55.528Z,12.00
2017-09-09T22:19:23.012Z,12.10
2017-09-09T22:21:50.582Z,12.10
2017-09-09T22:24:18.867Z,12.10
2017-09-09T22:26:46.397Z,12.10
2017-09-09T22:29:13.883Z,12.10
2017-09-09T22:31:41.421Z,12.10
2017-09-09T22:34:08.920Z,12.10
2017-09-09T22:36:36.406Z,12.10
2017-09-09T22:39:03.932Z,12.00
2017-09-09T22:41:31.435Z,12.00
2017-09-09T22:43:58.968Z,12.00
2017-09-09T22:46:26.643Z,12.00
2017-09-09T22:48:54.127Z,12.10
2017-09-09T22:51:22.427Z,12.10
2017-09-09T22:53:49.910Z,12.10
2017-09-09T22:56:17.434Z,12.10
2017-09-09T22:58:44.925Z,12.10
2017-09-09T23:01:12.421Z,12.10
2017-09-09T23:03:40.710Z,12.10
2017-09-09T23:06:08.959Z,12.10
2017-09-09T23:08:36.454Z,12.10
2017-09-09T23:11:03.981Z,12.10
2017-09-09T23:13:31.467Z,12.10
2017-09-09T23:15:58.984Z,12.10
2017-09-09T23:18:26.504Z,12.10
2017-09-09T23:20:53.991Z,12.10
2017-09-09T23:23:21.500Z,12.10
2017-09-09T23:25:48.996Z,12.10
2017-09-09T23:28:16.518Z,12.10
2017-09-09T23:30:44.067Z,12.10
2017-09-09T23:33:11.584Z,12.10
2017-09-09T23:35:39.097Z,12.10
2017-09-09T23:38:06.588Z,12.10
2017-09-09T23:40:34.119Z,12.10
2017-09-09T23:43:01.613Z,12.00
2017-09-09T23:45:29.105Z,12.10
2017-09-09T23:47:56.628Z,12.10
2017-09-09T23:50:24.122Z,12.00
2017-09-09T23:52:51.643Z,12.00
2017-09-09T23:55:19.180Z,12.00
2017-09-09T23:57:46.672Z,12.00
